createdAt,value
2017-12-03T00:02:19.247Z,-1.20
2017-12-03T00:04:48.728Z,-1.10
2017-12-03T00:07:17.466Z,-1.20
2017-12-03T00:09:46.234Z,-1.10
2017-12-03T00:12:15.736Z,-1.10
2017-12-03T00:14:45.341Z,-1.10
2017-12-03T00:17:14.851Z,-1.10
2017-12-03T00:19:44.330Z,-1.10
2017-12-03T00:22:13.066Z,-1.20
2017-12-03T00:24:41.794Z,-1.20
2017-12-03T00:27:10.533Z,-1.10
2017-12-03T00:29:39.351Z,-1.20
2017-12-03T00:32:08.075Z,-1.10
2017-12-03T00:34:36.823Z,-1.10
2017-12-03T00:37:05.586Z,-1.10
2017-12-03T00:39:35.070Z,-1.10
2017-12-03T00:42:03.987Z,-1.20
2017-12-03T00:44:33.479Z,-1.20
2017-12-03T00:47:02.954Z,-1.20
2017-12-03T00:49:31.693Z,-1.30
2017-12-03T00:52:00.422Z,-1.20
2017-12-03T00:54:29.177Z,-1.20
2017-12-03T00:56:58.021Z,-1.30
2017-12-03T00:59:26.746Z,-1.40
2017-12-03T01:01:55.478Z,-1.40
2017-12-03T01:04:24.335Z,-1.50
2017-12-03T01:06:53.066Z,-1.40
2017-12-03T01:09:21.600Z,-1.40
2017-12-03T01:11:50.311Z,-1.40
2017-12-03T01:14:19.047Z,-1.40
2017-12-03T01:16:47.773Z,-1.40
2017-12-03T01:19:16.511Z,-1.30
2017-12-03T01:21:45.223Z,-1.40
2017-12-03T01:24:14.746Z,-1.50
2017-12-03T01:26:43.270Z,-1.50
2017-12-03T01:29:11.798Z,-1.40
2017-12-03T01:31:41.295Z,-1.20
2017-12-03T01:34:10.779Z,-1.20
2017-12-03T01:36:39.563Z,-1.30
2017-12-03T01:39:08.291Z,-1.20
2017-12-03T01:41:37.847Z,-1.40
2017-12-03T01:44:06.682Z,-1.40
2017-12-03T01:46:35.408Z,-1.50
2017-12-03T01:49:04.116Z,-1.40
2017-12-03T01:51:32.838Z,-1.30
2017-12-03T01:54:01.550Z,-1.40
2017-12-03T01:56:31.031Z,-1.20
2017-12-03T01:58:59.460Z,-1.30
2017-12-03T02:01:28.328Z,-1.40
2017-12-03T02:03:57.810Z,-1.60
2017-12-03T02:06:25.876Z,-1.60
2017-12-03T02:08:53.735Z,-1.50
2017-12-03T02:11:22.378Z,-1.60
2017-12-03T02:13:51.114Z,-1.60
2017-12-03T02:16:19.979Z,-1.60
2017-12-03T02:18:48.711Z,-1.60
2017-12-03T02:21:17.094Z,-1.60
2017-12-03T02:23:45.814Z,-1.50
2017-12-03T02:26:14.522Z,-1.40
2017-12-03T02:28:43.264Z,-1.40
2017-12-03T02:31:12.783Z,-1.50
2017-12-03T02:33:42.393Z,-1.50
2017-12-03T02:36:11.107Z,-1.60
2017-12-03T02:38:39.840Z,-1.60
2017-12-03T02:41:08.546Z,-1.50
2017-12-03T02:43:37.351Z,-1.40
2017-12-03T02:46:06.163Z,-1.40
2017-12-03T02:48:34.968Z,-1.40
2017-12-03T02:51:03.678Z,-1.20
2017-12-03T02:53:32.245Z,-1.30
2017-12-03T02:56:00.955Z,-1.30
2017-12-03T02:58:29.006Z,-1.30
2017-12-03T03:00:57.758Z,-1.30
2017-12-03T03:03:26.478Z,-1.40
2017-12-03T03:05:55.179Z,-1.30
2017-12-03T03:08:24.025Z,-1.30
2017-12-03T03:10:52.748Z,-1.30
2017-12-03T03:13:22.123Z,-1.20
2017-12-03T03:15:50.831Z,-1.20
2017-12-03T03:18:19.223Z,-1.20
2017-12-03T03:20:47.853Z,-1.30
2017-12-03T03:23:17.342Z,-1.40
2017-12-03T03:25:46.842Z,-1.40
2017-12-03T03:28:15.550Z,-1.50
2017-12-03T03:30:44.298Z,-1.30
2017-12-03T03:33:13.038Z,-1.20
2017-12-03T03:35:41.440Z,-1.20
2017-12-03T03:38:09.834Z,-1.20
2017-12-03T03:40:37.898Z,-1.30
2017-12-03T03:43:06.640Z,-1.30
2017-12-03T03:45:36.172Z,-1.30
2017-12-03T03:48:04.899Z,-1.40
2017-12-03T03:50:33.298Z,-1.40
2017-12-03T03:53:02.012Z,-1.30
2017-12-03T03:55:31.567Z,-1.30
2017-12-03T03:58:00.304Z,-1.40
2017-12-03T04:00:29.479Z,-1.30
2017-12-03T04:02:57.527Z,-1.30
2017-12-03T04:05:25.719Z,-1.30
2017-12-03T04:07:54.418Z,-1.50
2017-12-03T04:10:23.138Z,-1.40
2017-12-03T04:12:52.280Z,-1.50
2017-12-03T04:15:21.007Z,-1.50
2017-12-03T04:17:49.735Z,-1.40
2017-12-03T04:20:18.449Z,-1.30
2017-12-03T04:22:46.977Z,-1.30
2017-12-03T04:25:16.119Z,-1.30
2017-12-03T04:27:44.675Z,-1.30
2017-12-03T04:30:13.198Z,-1.20
2017-12-03T04:32:41.747Z,-1.20
2017-12-03T04:35:10.457Z,-1.20
2017-12-03T04:37:38.670Z,-1.10
2017-12-03T04:40:06.715Z,-1.10
2017-12-03T04:42:34.758Z,-1.10
2017-12-03T04:45:02.631Z,-1.10
2017-12-03T04:47:30.686Z,-1.10
2017-12-03T04:49:59.876Z,-1.10
2017-12-03T04:52:29.016Z,-1.20
2017-12-03T04:54:57.756Z,-1.30
2017-12-03T04:57:26.713Z,-1.40
2017-12-03T04:59:55.233Z,-1.50
2017-12-03T05:02:24.774Z,-1.20
2017-12-03T05:04:52.827Z,-1.30
2017-12-03T05:07:21.991Z,-1.10
2017-12-03T05:09:50.051Z,-1.10
2017-12-03T05:12:18.223Z,-1.10
2017-12-03T05:14:46.852Z,-1.00
2017-12-03T05:17:15.994Z,-1.10
2017-12-03T05:19:44.386Z,-1.20
2017-12-03T05:22:12.431Z,-1.10
2017-12-03T05:24:40.802Z,-1.10
2017-12-03T05:27:09.171Z,-1.10
2017-12-03T05:29:38.168Z,-1.10
2017-12-03T05:32:06.198Z,-1.20
2017-12-03T05:34:34.363Z,-1.10
2017-12-03T05:37:02.766Z,-1.10
2017-12-03T05:39:31.160Z,-1.20
2017-12-03T05:42:00.643Z,-1.20
2017-12-03T05:44:29.070Z,-1.20
2017-12-03T05:46:57.467Z,-1.10
2017-12-03T05:49:25.902Z,-1.10
2017-12-03T05:51:54.328Z,-1.10
2017-12-03T05:54:23.042Z,-1.10
2017-12-03T05:56:51.095Z,-1.10
2017-12-03T05:59:19.499Z,-1.10
2017-12-03T06:01:48.315Z,-1.20
2017-12-03T06:04:16.723Z,-1.20
2017-12-03T06:06:45.095Z,-1.20
2017-12-03T06:09:14.603Z,-1.20
2017-12-03T06:11:43.867Z,-1.20
2017-12-03T06:14:11.967Z,-1.20
2017-12-03T06:16:40.758Z,-1.20
2017-12-03T06:19:09.742Z,-1.30
2017-12-03T06:21:38.279Z,-1.40
2017-12-03T06:24:06.528Z,-1.40
2017-12-03T06:26:34.678Z,-1.40
2017-12-03T06:29:02.879Z,-1.40
2017-12-03T06:31:31.266Z,-1.30
2017-12-03T06:33:59.638Z,-1.30
2017-12-03T06:36:28.483Z,-1.30
2017-12-03T06:38:56.526Z,-1.40
2017-12-03T06:41:25.247Z,-1.40
2017-12-03T06:43:53.302Z,-1.40
2017-12-03T06:46:21.373Z,-1.30
2017-12-03T06:48:49.759Z,-1.30
2017-12-03T06:51:17.822Z,-1.30
2017-12-03T06:53:46.459Z,-1.40
2017-12-03T06:56:15.615Z,-1.50
2017-12-03T06:58:43.817Z,-1.50
2017-12-03T07:01:12.399Z,-1.40
2017-12-03T07:03:41.934Z,-1.30
2017-12-03T07:06:10.875Z,-1.40
2017-12-03T07:08:39.579Z,-1.50
2017-12-03T07:11:07.984Z,-1.50
2017-12-03T07:13:37.143Z,-1.50
2017-12-03T07:16:05.564Z,-1.50
2017-12-03T07:18:34.734Z,-1.40
2017-12-03T07:21:02.939Z,-1.40
2017-12-03T07:23:31.783Z,-1.30
2017-12-03T07:26:00.210Z,-1.40
2017-12-03T07:28:28.875Z,-1.30
2017-12-03T07:30:57.236Z,-1.30
2017-12-03T07:33:25.470Z,-1.30
2017-12-03T07:35:53.662Z,-1.30
2017-12-03T07:38:22.049Z,-1.30
2017-12-03T07:40:50.454Z,-1.40
2017-12-03T07:43:18.890Z,-1.30
2017-12-03T07:45:47.268Z,-1.20
2017-12-03T07:48:15.660Z,-1.20
2017-12-03T07:50:44.077Z,-1.20
2017-12-03T07:53:12.538Z,-1.20
2017-12-03T07:55:40.586Z,-1.20
2017-12-03T07:58:08.987Z,-1.30
2017-12-03T08:00:37.059Z,-1.20
2017-12-03T08:03:05.115Z,-1.30
2017-12-03T08:05:33.499Z,-1.20
2017-12-03T08:08:01.558Z,-1.20
2017-12-03T08:10:29.679Z,-1.20
2017-12-03T08:12:58.054Z,-1.10
2017-12-03T08:15:26.129Z,-1.10
2017-12-03T08:17:54.582Z,-0.90
2017-12-03T08:20:22.938Z,-0.80
2017-12-03T08:22:51.762Z,-0.70
2017-12-03T08:25:20.651Z,-0.70
2017-12-03T08:27:49.051Z,-0.60
2017-12-03T08:30:17.634Z,-0.50
2017-12-03T08:32:47.802Z,-0.40
2017-12-03T08:35:16.623Z,-0.30
2017-12-03T08:37:44.671Z,-0.40
2017-12-03T08:40:13.828Z,-0.30
2017-12-03T08:42:42.262Z,-0.30
2017-12-03T08:45:10.331Z,-0.30
2017-12-03T08:47:38.751Z,-0.40
2017-12-03T08:50:06.919Z,-0.30
2017-12-03T08:52:35.646Z,-0.40
2017-12-03T08:55:03.705Z,-0.30
2017-12-03T08:57:32.528Z,-0.30
2017-12-03T09:00:02.008Z,-0.30
2017-12-03T09:02:30.414Z,-0.40
2017-12-03T09:04:59.615Z,-0.30
2017-12-03T09:07:28.018Z,-0.30
2017-12-03T09:09:56.818Z,-0.30
2017-12-03T09:12:25.232Z,-0.20
2017-12-03T09:14:53.644Z,-0.10
2017-12-03T09:17:22.915Z,-0.30
2017-12-03T09:19:51.004Z,-0.30
2017-12-03T09:22:19.726Z,-0.20
2017-12-03T09:24:47.935Z,-0.10
2017-12-03T09:27:16.315Z,-0.20
2017-12-03T09:29:45.707Z,-0.10
2017-12-03T09:32:14.099Z,-0.20
2017-12-03T09:34:42.202Z,-0.40
2017-12-03T09:37:10.287Z,-0.30
2017-12-03T09:39:39.462Z,-0.10
2017-12-03T09:42:07.527Z,-0.10
2017-12-03T09:44:35.952Z,-0.20
2017-12-03T09:47:04.716Z,-0.10
2017-12-03T09:49:32.784Z,-0.10
2017-12-03T09:52:01.174Z,-0.20
2017-12-03T09:54:29.260Z,0.00
2017-12-03T09:56:58.399Z,0.10
2017-12-03T09:59:27.386Z,0.10
2017-12-03T10:01:55.815Z,0.20
2017-12-03T10:04:24.216Z,0.10
2017-12-03T10:06:53.063Z,0.00
2017-12-03T10:09:21.552Z,-0.10
2017-12-03T10:11:49.937Z,0.00
2017-12-03T10:14:18.656Z,0.00
2017-12-03T10:16:48.227Z,-0.10
2017-12-03T10:19:16.302Z,-0.10
2017-12-03T10:21:45.030Z,0.00
2017-12-03T10:24:14.220Z,0.10
2017-12-03T10:26:43.056Z,0.10
2017-12-03T10:29:11.458Z,0.00
2017-12-03T10:31:39.823Z,0.30
2017-12-03T10:34:07.883Z,0.50
2017-12-03T10:36:35.952Z,0.50
2017-12-03T10:39:04.085Z,0.50
2017-12-03T10:41:32.652Z,0.50
2017-12-03T10:44:01.394Z,0.70
2017-12-03T10:46:30.950Z,0.90
2017-12-03T10:48:59.667Z,0.60
2017-12-03T10:51:29.316Z,0.30
2017-12-03T10:53:58.043Z,0.30
2017-12-03T10:56:26.579Z,0.20
2017-12-03T10:58:55.390Z,0.10
2017-12-03T11:01:24.135Z,0.10
2017-12-03T11:03:53.847Z,0.10
2017-12-03T11:06:22.275Z,0.10
2017-12-03T11:08:50.692Z,0.20
2017-12-03T11:11:19.422Z,0.20
2017-12-03T11:13:48.166Z,0.10
2017-12-03T11:16:17.649Z,0.10
2017-12-03T11:18:46.403Z,0.00
2017-12-03T11:21:15.152Z,0.20
2017-12-03T11:23:44.652Z,0.30
2017-12-03T11:26:13.534Z,0.20
2017-12-03T11:28:42.253Z,0.30
2017-12-03T11:31:11.770Z,0.50
2017-12-03T11:33:40.246Z,0.40
2017-12-03T11:36:08.971Z,0.50
2017-12-03T11:38:37.714Z,0.40
2017-12-03T11:41:06.440Z,0.30
2017-12-03T11:43:35.234Z,0.30
2017-12-03T11:46:03.935Z,0.20
2017-12-03T11:48:32.653Z,0.20
2017-12-03T11:51:02.160Z,0.20
2017-12-03T11:53:30.879Z,0.10
2017-12-03T11:55:59.678Z,0.10
2017-12-03T11:58:28.407Z,0.00
2017-12-03T12:00:57.158Z,0.10
2017-12-03T12:03:25.888Z,0.00
2017-12-03T12:05:54.631Z,-0.10
2017-12-03T12:08:23.360Z,-0.10
2017-12-03T12:10:52.094Z,-0.30
2017-12-03T12:13:20.923Z,-0.20
2017-12-03T12:15:49.664Z,-0.40
2017-12-03T12:18:18.813Z,0.00
2017-12-03T12:20:47.701Z,-0.10
2017-12-03T12:23:16.471Z,-0.10
2017-12-03T12:25:45.215Z,0.50
2017-12-03T12:28:13.931Z,0.00
2017-12-03T12:30:42.706Z,-0.10
2017-12-03T12:33:11.464Z,-0.10
2017-12-03T12:35:40.024Z,-0.20
2017-12-03T12:38:08.760Z,-0.20
2017-12-03T12:40:38.243Z,-0.20
2017-12-03T12:43:07.470Z,-0.30
2017-12-03T12:45:36.990Z,-0.30
2017-12-03T12:48:06.160Z,-0.20
2017-12-03T12:50:34.072Z,-0.20
2017-12-03T12:53:02.827Z,-0.20
2017-12-03T12:55:30.906Z,-0.20
2017-12-03T12:58:00.054Z,-0.30
2017-12-03T13:00:28.182Z,-0.40
2017-12-03T13:02:57.681Z,-0.40
2017-12-03T13:05:26.404Z,-0.50
2017-12-03T13:07:55.144Z,-0.50
2017-12-03T13:10:23.863Z,-0.70
2017-12-03T13:12:53.400Z,-0.60
2017-12-03T13:15:22.144Z,-0.60
2017-12-03T13:17:51.650Z,-0.60
2017-12-03T13:20:21.242Z,-0.60
2017-12-03T13:22:49.968Z,-0.60
2017-12-03T13:25:18.715Z,-0.60
2017-12-03T13:27:47.475Z,-0.50
2017-12-03T13:30:16.204Z,-0.50
2017-12-03T13:32:45.042Z,-0.40
2017-12-03T13:35:13.779Z,-0.50
2017-12-03T13:37:42.544Z,-0.60
2017-12-03T13:40:11.290Z,-0.70
2017-12-03T13:42:40.045Z,-0.60
2017-12-03T13:45:08.755Z,-0.70
2017-12-03T13:47:38.263Z,-0.60
2017-12-03T13:50:07.095Z,-0.60
2017-12-03T13:52:35.648Z,-0.70
2017-12-03T13:55:04.466Z,-0.70
2017-12-03T13:57:33.291Z,-0.70
2017-12-03T14:00:02.032Z,-0.60
2017-12-03T14:02:30.591Z,-0.70
2017-12-03T14:05:00.093Z,-0.90
2017-12-03T14:07:29.722Z,-0.90
2017-12-03T14:09:58.261Z,-1.00
2017-12-03T14:12:26.921Z,-1.00
2017-12-03T14:14:56.595Z,-1.10
2017-12-03T14:17:26.108Z,-1.00
2017-12-03T14:19:54.842Z,-1.10
2017-12-03T14:22:23.587Z,-1.00
2017-12-03T14:24:52.897Z,-1.10
2017-12-03T14:27:21.608Z,-1.20
2017-12-03T14:29:50.170Z,-1.00
2017-12-03T14:32:18.980Z,-1.10
2017-12-03T14:34:47.875Z,-1.20
2017-12-03T14:37:16.610Z,-1.20
2017-12-03T14:39:46.116Z,-1.20
2017-12-03T14:42:14.827Z,-1.20
2017-12-03T14:44:43.682Z,-1.20
2017-12-03T14:47:12.231Z,-1.20
2017-12-03T14:49:40.915Z,-1.30
2017-12-03T14:52:09.822Z,-1.30
2017-12-03T14:54:38.564Z,-1.30
2017-12-03T14:57:08.061Z,-1.20
2017-12-03T14:59:36.802Z,-1.30
2017-12-03T15:02:05.515Z,-1.30
2017-12-03T15:04:34.448Z,-1.40
2017-12-03T15:07:03.162Z,-1.30
2017-12-03T15:09:31.897Z,-1.30
2017-12-03T15:12:00.623Z,-1.30
2017-12-03T15:14:29.349Z,-1.30
2017-12-03T15:16:58.093Z,-1.30
2017-12-03T15:19:26.494Z,-1.30
2017-12-03T15:21:54.588Z,-1.30
2017-12-03T15:24:22.666Z,-1.40
2017-12-03T15:26:50.742Z,-1.40
2017-12-03T15:29:18.812Z,-1.40
2017-12-03T15:31:46.878Z,-1.50
2017-12-03T15:34:15.313Z,-1.50
2017-12-03T15:36:43.384Z,-1.50
2017-12-03T15:39:12.296Z,-1.40
2017-12-03T15:41:40.352Z,-1.50
2017-12-03T15:44:08.472Z,-1.40
2017-12-03T15:46:36.678Z,-1.40
2017-12-03T15:49:04.927Z,-1.40
2017-12-03T15:51:35.531Z,-1.40
2017-12-03T15:54:11.518Z,-1.40
2017-12-03T15:56:45.978Z,-1.40
2017-12-03T15:59:13.972Z,-1.40
2017-12-03T16:01:42.191Z,-1.40
2017-12-03T16:04:11.340Z,-1.40
2017-12-03T16:06:41.128Z,-1.40
2017-12-03T16:09:10.195Z,-1.40
2017-12-03T16:11:38.904Z,-1.40
2017-12-03T16:14:07.607Z,-1.40
2017-12-03T16:16:37.098Z,-1.40
2017-12-03T16:19:05.826Z,-1.40
2017-12-03T16:21:34.560Z,-1.30
2017-12-03T16:24:03.277Z,-1.30
2017-12-03T16:26:32.771Z,-1.30
2017-12-03T16:29:01.156Z,-1.40
2017-12-03T16:31:30.662Z,-1.30
2017-12-03T16:34:00.168Z,-1.30
2017-12-03T16:36:29.338Z,-1.30
2017-12-03T16:38:57.767Z,-1.40
2017-12-03T16:41:26.990Z,-1.30
2017-12-03T16:43:55.712Z,-1.40
2017-12-03T16:46:24.123Z,-1.30
2017-12-03T16:48:53.620Z,-1.40
2017-12-03T16:51:22.347Z,-1.40
2017-12-03T16:53:51.053Z,-1.40
2017-12-03T16:56:19.803Z,-1.40
2017-12-03T16:58:48.965Z,-1.40
2017-12-03T17:01:17.439Z,-1.50
2017-12-03T17:03:46.158Z,-1.40
2017-12-03T17:06:14.874Z,-1.40
2017-12-03T17:08:43.633Z,-1.30
2017-12-03T17:11:23.570Z,-1.40
2017-12-03T17:13:52.321Z,-1.40
2017-12-03T17:16:21.126Z,-1.30
2017-12-03T17:18:49.691Z,-1.30
2017-12-03T17:21:18.444Z,-1.30
2017-12-03T17:23:47.927Z,-1.30
2017-12-03T17:26:15.795Z,-1.30
2017-12-03T17:28:44.183Z,-1.30
2017-12-03T17:31:12.294Z,-1.40
2017-12-03T17:33:41.000Z,-1.30
2017-12-03T17:36:09.755Z,-1.40
2017-12-03T17:38:39.254Z,-1.40
2017-12-03T17:41:08.765Z,-1.40
2017-12-03T17:43:38.390Z,-1.40
2017-12-03T17:46:07.343Z,-1.50
2017-12-03T17:48:36.074Z,-1.40
2017-12-03T17:51:04.505Z,-1.40
2017-12-03T17:53:33.054Z,-1.40
2017-12-03T17:56:01.622Z,-1.40
2017-12-03T17:58:30.163Z,-1.40
2017-12-03T18:00:58.889Z,-1.40
2017-12-03T18:03:27.723Z,-1.40
2017-12-03T18:05:56.462Z,-1.40
2017-12-03T18:08:25.198Z,-1.40
2017-12-03T18:10:53.979Z,-1.40
2017-12-03T18:13:22.825Z,-1.50
2017-12-03T18:15:52.315Z,-1.50
2017-12-03T18:18:21.030Z,-1.60
2017-12-03T18:20:50.521Z,-1.50
2017-12-03T18:23:19.352Z,-1.50
2017-12-03T18:25:47.754Z,-1.50
2017-12-03T18:28:16.594Z,-1.50
2017-12-03T18:30:46.224Z,-1.50
2017-12-03T18:33:14.969Z,-1.50
2017-12-03T18:35:43.376Z,-1.50
2017-12-03T18:38:12.664Z,-1.50
2017-12-03T18:40:41.698Z,-1.50
2017-12-03T18:43:10.231Z,-1.50
2017-12-03T18:45:39.262Z,-1.60
2017-12-03T18:48:07.149Z,-1.60
2017-12-03T18:50:35.351Z,-1.50
2017-12-03T18:53:03.591Z,-1.50
2017-12-03T18:55:32.258Z,-1.50
2017-12-03T18:58:01.576Z,-1.50
2017-12-03T19:00:29.448Z,-1.60
2017-12-03T19:02:57.679Z,-1.50
2017-12-03T19:05:26.973Z,-1.50
2017-12-03T19:07:55.747Z,-1.60
2017-12-03T19:10:24.614Z,-1.50
2017-12-03T19:12:53.351Z,-1.40
2017-12-03T19:15:22.821Z,-1.40
2017-12-03T19:17:51.566Z,-1.50
2017-12-03T19:20:19.812Z,-1.40
2017-12-03T19:22:49.302Z,-1.40
2017-12-03T19:25:18.068Z,-1.50
2017-12-03T19:27:46.783Z,-1.40
2017-12-03T19:30:15.215Z,-1.40
2017-12-03T19:32:44.694Z,-1.40
2017-12-03T19:35:13.106Z,-1.40
2017-12-03T19:37:41.899Z,-1.40
2017-12-03T19:40:10.485Z,-1.30
2017-12-03T19:42:39.207Z,-1.40
2017-12-03T19:45:07.922Z,-1.40
2017-12-03T19:47:36.683Z,-1.40
2017-12-03T19:50:05.443Z,-1.50
2017-12-03T19:52:34.158Z,-1.40
2017-12-03T19:55:02.911Z,-1.40
2017-12-03T19:57:31.318Z,-1.40
2017-12-03T20:00:00.048Z,-1.40
2017-12-03T20:02:28.864Z,-1.40
2017-12-03T20:04:58.345Z,-1.30
2017-12-03T20:07:27.545Z,-1.40
2017-12-03T20:09:57.050Z,-1.40
2017-12-03T20:12:26.482Z,-1.40
2017-12-03T20:14:56.039Z,-1.40
2017-12-03T20:17:24.820Z,-1.40
2017-12-03T20:19:53.308Z,-1.40
2017-12-03T20:22:22.066Z,-1.30
2017-12-03T20:24:50.871Z,-1.30
2017-12-03T20:27:19.630Z,-1.30
2017-12-03T20:29:48.390Z,-1.30
2017-12-03T20:32:17.140Z,-1.30
2017-12-03T20:34:45.208Z,-1.30
2017-12-03T20:37:13.766Z,-1.30
2017-12-03T20:39:42.484Z,-1.30
2017-12-03T20:42:11.031Z,-1.30
2017-12-03T20:44:40.405Z,-1.40
2017-12-03T20:47:09.935Z,-1.30
2017-12-03T20:49:39.285Z,-1.30
2017-12-03T20:52:07.819Z,-1.30
2017-12-03T20:54:36.995Z,-1.30
2017-12-03T20:57:05.718Z,-1.30
2017-12-03T20:59:34.463Z,-1.30
2017-12-03T21:02:02.903Z,-1.30
2017-12-03T21:04:31.310Z,-1.30
2017-12-03T21:06:59.847Z,-1.30
2017-12-03T21:09:29.358Z,-1.30
2017-12-03T21:11:58.107Z,-1.30
2017-12-03T21:14:26.854Z,-1.30
2017-12-03T21:16:55.245Z,-1.20
2017-12-03T21:19:23.996Z,-1.20
2017-12-03T21:21:53.498Z,-1.30
2017-12-03T21:24:22.493Z,-1.20
2017-12-03T21:26:51.986Z,-1.20
2017-12-03T21:29:20.531Z,-1.30
2017-12-03T21:31:48.974Z,-1.20
2017-12-03T21:34:17.891Z,-1.20
2017-12-03T21:36:46.627Z,-1.20
2017-12-03T21:39:14.997Z,-1.20
2017-12-03T21:41:43.763Z,-1.20
2017-12-03T21:44:12.491Z,-1.20
2017-12-03T21:46:41.244Z,-1.20
2017-12-03T21:49:10.167Z,-1.20
2017-12-03T21:51:38.859Z,-1.20
2017-12-03T21:54:07.598Z,-1.20
2017-12-03T21:56:36.386Z,-1.20
2017-12-03T21:59:05.140Z,-1.20
2017-12-03T22:01:34.762Z,-1.10
2017-12-03T22:04:03.472Z,-1.20
2017-12-03T22:06:32.212Z,-1.20
2017-12-03T22:09:01.394Z,-1.10
2017-12-03T22:11:30.284Z,-1.10
2017-12-03T22:13:59.010Z,-1.10
2017-12-03T22:16:28.519Z,-1.10
2017-12-03T22:18:58.015Z,-1.10
2017-12-03T22:21:27.507Z,-1.10
2017-12-03T22:23:56.317Z,-1.10
2017-12-03T22:26:26.073Z,-1.00
2017-12-03T22:28:54.808Z,-1.10
2017-12-03T22:31:24.421Z,-1.10
2017-12-03T22:33:53.904Z,-1.10
2017-12-03T22:36:22.617Z,-1.10
2017-12-03T22:38:52.174Z,-1.10
2017-12-03T22:41:20.903Z,-1.10
2017-12-03T22:43:50.433Z,-1.10
2017-12-03T22:46:19.925Z,-1.10
2017-12-03T22:48:49.417Z,-1.00
2017-12-03T22:51:18.126Z,-1.10
2017-12-03T22:53:47.631Z,-1.10
2017-12-03T22:56:17.104Z,-1.10
2017-12-03T22:58:45.834Z,-1.10
2017-12-03T23:01:15.347Z,-1.00
2017-12-03T23:03:44.173Z,-1.10
2017-12-03T23:06:12.906Z,-1.00
2017-12-03T23:08:42.414Z,-1.00
2017-12-03T23:11:11.875Z,-1.00
2017-12-03T23:13:40.615Z,-1.10
2017-12-03T23:16:10.096Z,-1.00
2017-12-03T23:18:38.918Z,-1.10
2017-12-03T23:21:08.478Z,-1.00
2017-12-03T23:23:37.262Z,-1.00
2017-12-03T23:26:05.577Z,-0.90
2017-12-03T23:28:34.083Z,-0.90
2017-12-03T23:31:02.154Z,-1.00
2017-12-03T23:33:30.667Z,-0.90
2017-12-03T23:35:58.859Z,-0.90
2017-12-03T23:38:27.550Z,-0.90
2017-12-03T23:40:57.055Z,-0.90
2017-12-03T23:43:25.563Z,-0.90
2017-12-03T23:45:54.115Z,-0.90
2017-12-03T23:48:22.815Z,-0.90
2017-12-03T23:50:51.202Z,-0.90
2017-12-03T23:53:19.929Z,-0.90
2017-12-03T23:55:48.335Z,-0.90
2017-12-03T23:58:17.034Z,-0.80
